Time;durP1;ratioP1;P1;durP2;ratioP2;P2;SDS_P1;SDS_P2;PMS_P1;PMS_P2;Temp;Humidity;BMP_temperature;BMP_pressure;BME280_temperature;BME280_humidity;BME280_pressure;Samples;Min_cycle;Max_cycle;Signal;HPM_P1;HPM_P2
2022/01/06 08:11:48;;;;;;;12.23;5.67;;;-3.20;99.90;;;;;;5091943;27;20573;-77
2022/01/06 08:14:14;;;;;;;9.13;3.87;;;-3.60;99.90;;;;;;5092521;28;20172;-79
2022/01/06 08:16:40;;;;;;;17.20;6.03;;;-3.00;99.90;;;;;;5091792;28;20257;-76
2022/01/06 08:19:05;;;;;;;6.90;3.93;;;-4.00;99.90;;;;;;5093204;28;20195;-75
2022/01/06 08:21:31;;;;;;;20.40;7.17;;;-4.10;99.90;;;;;;5091612;28;20281;-77
2022/01/06 08:23:57;;;;;;;15.13;5.03;;;-4.50;99.90;;;;;;5089863;28;20220;-72
2022/01/06 08:26:22;;;;;;;13.93;4.80;;;-4.00;99.90;;;;;;5092490;28;20833;-70
2022/01/06 08:28:48;;;;;;;16.60;5.30;;;-3.70;99.90;;;;;;5091478;28;20175;-70
2022/01/06 08:31:17;;;;;;;12.57;4.67;;;-4.10;99.90;;;;;;5098870;28;20185;-72
2022/01/06 08:33:43;;;;;;;11.60;4.13;;;-3.90;99.90;;;;;;5112252;28;20170;-72
2022/01/06 08:36:09;;;;;;;19.20;5.27;;;-2.30;99.90;;;;;;5112955;28;20434;-72
2022/01/06 08:38:35;;;;;;;14.90;5.40;;;-3.40;99.90;;;;;;5105616;28;20396;-78
2022/01/06 08:41:01;;;;;;;12.53;4.77;;;-3.80;99.90;;;;;;5091766;28;20213;-70
2022/01/06 08:43:27;;;;;;;14.63;5.73;;;-4.00;99.90;;;;;;5091192;28;20178;-82
2022/01/06 08:45:55;;;;;;;19.03;5.37;;;-3.00;99.90;;;;;;5092141;28;20264;-73
2022/01/06 08:48:21;;;;;;;13.10;5.27;;;-4.40;99.90;;;;;;5092673;28;20400;-70
2022/01/06 08:50:47;;;;;;;20.03;5.93;;;-3.90;99.90;;;;;;5092478;28;20484;-70
2022/01/06 08:53:14;;;;;;;22.30;5.07;;;-5.00;99.90;;;;;;5092018;28;20180;-79
2022/01/06 08:55:40;;;;;;;13.50;4.87;;;-4.50;99.90;;;;;;5091203;28;20675;-76
2022/01/06 08:58:05;;;;;;;10.23;6.10;;;-4.50;99.90;;;;;;5091013;28;20407;-80
2022/01/06 09:00:31;;;;;;;14.40;6.37;;;-4.40;99.90;;;;;;5089887;28;20259;-72
2022/01/06 09:02:58;;;;;;;15.20;6.20;;;-4.10;99.90;;;;;;5071892;28;20169;-72
2022/01/06 09:05:24;;;;;;;16.83;6.43;;;-4.00;99.90;;;;;;5070955;28;20616;-83
2022/01/06 09:07:50;;;;;;;11.53;6.07;;;-4.10;99.90;;;;;;5075651;28;20470;-73
2022/01/06 09:10:16;;;;;;;14.03;7.07;;;-4.40;99.90;;;;;;5091225;28;20441;-81
2022/01/06 09:12:43;;;;;;;16.80;5.30;;;-4.50;99.90;;;;;;5089214;28;20426;-70
2022/01/06 09:15:09;;;;;;;16.43;5.37;;;-3.40;99.90;;;;;;5091788;28;20162;-75
2022/01/06 09:17:36;;;;;;;24.20;6.33;;;-4.30;99.90;;;;;;5090772;28;20492;-76
2022/01/06 09:20:04;;;;;;;15.60;5.27;;;-4.70;99.90;;;;;;5090614;28;20446;-70
2022/01/06 09:22:30;;;;;;;10.37;6.00;;;-4.30;99.90;;;;;;5081029;28;20401;-81
2022/01/06 09:24:56;;;;;;;15.47;6.20;;;-4.40;99.90;;;;;;5074793;28;20409;-71
2022/01/06 09:27:23;;;;;;;17.97;5.37;;;-4.80;99.90;;;;;;5077964;28;20398;-78
2022/01/06 09:29:52;;;;;;;13.80;6.10;;;-4.70;99.90;;;;;;5076115;28;20172;-86
2022/01/06 09:32:19;;;;;;;12.33;6.47;;;-4.80;99.90;;;;;;5060877;28;20504;-73
2022/01/06 09:34:45;;;;;;;15.50;6.57;;;-4.90;99.90;;;;;;5061934;28;20411;-79
2022/01/06 09:37:10;;;;;;;11.23;4.47;;;-4.90;99.90;;;;;;5077846;28;20415;-76
2022/01/06 09:39:36;;;;;;;18.70;6.33;;;-4.60;99.90;;;;;;5076819;28;20849;-79
2022/01/06 09:42:02;;;;;;;15.37;6.83;;;-3.10;99.90;;;;;;5075860;28;20516;-77
2022/01/06 09:44:29;;;;;;;24.30;8.47;;;-4.60;99.90;;;;;;5076365;28;20173;-81
2022/01/06 09:46:57;;;;;;;13.53;6.47;;;-4.70;99.90;;;;;;5076935;28;20446;-83
2022/01/06 09:49:24;;;;;;;21.33;8.33;;;-4.30;99.90;;;;;;5075419;28;20420;-84
2022/01/06 09:51:51;;;;;;;16.90;6.53;;;-3.90;99.90;;;;;;5077601;28;20674;-79
2022/01/06 09:54:18;;;;;;;26.17;8.73;;;-3.90;99.90;;;;;;5075779;28;20417;-74
2022/01/06 09:56:43;;;;;;;15.37;6.60;;;-3.10;99.90;;;;;;5077620;28;20408;-80
2022/01/06 09:59:09;;;;;;;13.93;7.33;;;-3.60;99.90;;;;;;5075221;28;20775;-86
2022/01/06 10:01:35;;;;;;;16.27;6.03;;;-3.70;99.90;;;;;;5065097;28;20217;-86
2022/01/06 10:04:01;;;;;;;15.97;6.57;;;-3.70;99.90;;;;;;5057711;28;20164;-80
2022/01/06 10:06:28;;;;;;;16.23;7.27;;;-2.80;99.90;;;;;;5075087;28;20170;-82
2022/01/06 10:09:01;;;;;;;23.03;8.63;;;-4.20;99.90;;;;;;5077378;28;20155;-72
2022/01/06 10:11:29;;;;;;;17.33;6.97;;;-3.80;99.90;;;;;;5076140;28;20810;-75
2022/01/06 10:13:59;;;;;;;18.17;6.30;;;-4.10;99.90;;;;;;5075922;28;20415;-78
2022/01/06 10:16:28;;;;;;;16.53;6.47;;;-4.20;99.90;;;;;;5077286;28;20422;-76
2022/01/06 10:19:00;;;;;;;13.17;5.07;;;-4.60;99.90;;;;;;5076692;28;20190;-79
2022/01/06 10:21:43;;;;;;;13.17;7.63;;;-4.70;99.90;;;;;;5074757;28;20478;-81
2022/01/06 10:24:15;;;;;;;24.03;6.67;;;-4.80;99.90;;;;;;5076664;28;20194;-76
2022/01/06 10:27:04;;;;;;;15.67;6.03;;;-4.80;99.90;;;;;;5076215;28;20492;-77
2022/01/06 10:29:51;;;;;;;18.33;9.20;;;-4.50;99.90;;;;;;5076541;28;20426;-77
2022/01/06 10:32:24;;;;;;;12.03;6.03;;;-4.50;99.90;;;;;;5062816;28;20420;-86
2022/01/06 10:35:02;;;;;;;16.40;6.00;;;-4.40;99.90;;;;;;5075905;28;20182;-74
2022/01/06 10:37:39;;;;;;;12.70;6.00;;;-4.80;99.90;;;;;;5075129;28;20521;-78
2022/01/06 10:40:07;;;;;;;12.30;7.77;;;-4.80;99.90;;;;;;5074635;28;20463;-72
2022/01/06 10:42:36;;;;;;;18.07;6.97;;;-4.40;99.90;;;;;;5075457;28;20172;-74
2022/01/06 10:45:14;;;;;;;15.77;7.50;;;-4.50;99.90;;;;;;5075840;28;20212;-72
2022/01/06 10:47:42;;;;;;;20.20;5.97;;;-4.30;99.90;;;;;;5074619;28;20202;-82
2022/01/06 10:50:20;;;;;;;18.20;6.67;;;-4.90;99.90;;;;;;5075763;28;20187;-75
2022/01/06 10:52:51;;;;;;;12.30;6.20;;;-4.80;99.90;;;;;;5075738;28;20419;-76
2022/01/06 10:55:21;;;;;;;12.30;5.93;;;-4.10;99.90;;;;;;5071353;28;20407;-80
2022/01/06 10:57:51;;;;;;;18.60;6.77;;;-4.30;99.90;;;;;;5080652;28;20506;-72
2022/01/06 11:00:18;;;;;;;13.43;7.40;;;-4.20;99.90;;;;;;5078588;28;20206;-76
2022/01/06 11:02:44;;;;;;;13.57;6.50;;;-5.10;99.90;;;;;;5059077;28;20477;-71
2022/01/06 11:05:10;;;;;;;13.20;5.90;;;-4.90;99.90;;;;;;5058216;28;20219;-73
2022/01/06 11:07:36;;;;;;;27.77;7.23;;;-5.00;99.90;;;;;;5056402;28;20165;-71
2022/01/06 11:10:13;;;;;;;21.87;7.00;;;-4.40;99.90;;;;;;5061963;28;20203;-71
2022/01/06 11:12:39;;;;;;;20.63;6.33;;;-4.40;99.90;;;;;;5075393;28;20184;-71
2022/01/06 11:15:06;;;;;;;15.03;6.40;;;-4.20;99.90;;;;;;5075079;28;20213;-85
2022/01/06 11:17:32;;;;;;;18.00;7.60;;;-4.20;99.90;;;;;;5075998;28;20178;-76
2022/01/06 11:19:58;;;;;;;18.63;6.73;;;-4.20;99.90;;;;;;5075070;28;20253;-76
2022/01/06 11:22:25;;;;;;;26.77;10.20;;;-3.50;99.90;;;;;;5075653;28;20163;-78
2022/01/06 11:24:55;;;;;;;18.13;7.20;;;-4.00;99.90;;;;;;5094979;28;20183;-74
2022/01/06 11:27:33;;;;;;;17.37;7.93;;;-3.90;99.90;;;;;;5095824;28;20173;-71
2022/01/06 11:30:15;;;;;;;13.73;7.07;;;-4.20;99.90;;;;;;5095362;28;20174;-74
2022/01/06 11:32:42;;;;;;;28.43;9.60;;;-4.40;99.90;;;;;;5054583;28;20652;-76
2022/01/06 11:35:15;;;;;;;23.97;8.17;;;-4.20;99.90;;;;;;5071440;28;20171;-79
2022/01/06 11:37:52;;;;;;;19.43;9.23;;;-4.50;99.90;;;;;;5074626;28;20224;-80
2022/01/06 11:40:40;;;;;;;15.77;7.53;;;-4.70;99.90;;;;;;5074107;28;20484;-77
2022/01/06 11:43:06;;;;;;;16.67;9.27;;;-5.00;99.90;;;;;;5074720;28;20182;-75
2022/01/06 11:45:32;;;;;;;17.70;9.37;;;-4.90;99.90;;;;;;5074270;28;20392;-75
2022/01/06 11:48:08;;;;;;;24.53;10.87;;;-4.80;99.90;;;;;;5075110;28;20408;-76
2022/01/06 11:50:44;;;;;;;16.87;11.03;;;-4.60;99.90;;;;;;5074849;28;20200;-72
2022/01/06 11:53:10;;;;;;;16.97;8.93;;;-4.20;99.90;;;;;;5074739;28;20520;-70
2022/01/06 11:55:42;;;;;;;20.20;10.10;;;-4.10;99.90;;;;;;5074290;28;20495;-70
2022/01/06 11:58:19;;;;;;;19.27;10.13;;;-4.30;99.90;;;;;;5073782;28;20176;-73
2022/01/06 12:01:12;;;;;;;25.50;9.60;;;-4.50;99.90;;;;;;5070975;28;20481;-75
2022/01/06 12:03:45;;;;;;;20.13;10.47;;;-4.60;99.90;;;;;;5055286;28;20397;-76
2022/01/06 12:06:23;;;;;;;20.63;11.30;;;-4.30;99.90;;;;;;5058115;28;20408;-75
2022/01/06 12:08:48;;;;;;;23.20;11.50;;;-4.20;99.90;;;;;;5075225;28;20397;-75
2022/01/06 12:11:33;;;;;;;21.90;10.37;;;-4.40;99.90;;;;;;5074019;28;20443;-73
2022/01/06 12:14:00;;;;;;;22.80;10.40;;;-4.30;99.90;;;;;;5075210;28;20186;-72
2022/01/06 12:16:34;;;;;;;17.07;10.63;;;-2.60;99.90;;;;;;5073874;28;20477;-71
2022/01/06 12:19:11;;;;;;;25.30;11.57;;;-4.20;99.90;;;;;;5075593;28;20727;-72
2022/01/06 12:21:37;;;;;;;24.47;12.47;;;-4.40;99.90;;;;;;5074572;28;20958;-71
2022/01/06 12:24:05;;;;;;;23.03;12.30;;;-4.80;99.90;;;;;;5074961;28;20387;-75
2022/01/06 12:26:32;;;;;;;24.07;11.90;;;-5.20;99.90;;;;;;5074667;28;20171;-71
2022/01/06 12:28:58;;;;;;;22.57;11.87;;;-5.00;99.90;;;;;;5074866;28;20419;-79
2022/01/06 12:31:33;;;;;;;28.63;13.67;;;-3.20;99.90;;;;;;5063744;28;20417;-73
2022/01/06 12:34:02;;;;;;;26.20;13.07;;;-4.30;99.90;;;;;;5054490;28;20392;-75
2022/01/06 12:36:30;;;;;;;27.63;13.10;;;-4.30;99.90;;;;;;5054609;28;20412;-74
2022/01/06 12:38:59;;;;;;;28.63;13.30;;;-4.10;99.90;;;;;;5061831;28;20420;-84
2022/01/06 12:41:29;;;;;;;40.90;13.57;;;-3.90;99.90;;;;;;5073600;28;20458;-76
2022/01/06 12:43:56;;;;;;;27.37;12.27;;;-3.90;99.90;;;;;;5073107;28;20431;-78
2022/01/06 12:46:29;;;;;;;28.47;12.37;;;-3.90;99.90;;;;;;5074930;28;20413;-79
2022/01/06 12:48:54;;;;;;;20.80;12.87;;;-3.80;99.90;;;;;;5074612;28;20393;-81
2022/01/06 12:51:23;;;;;;;27.13;11.07;;;-4.10;99.90;;;;;;5073977;28;20419;-74
2022/01/06 12:53:51;;;;;;;25.23;11.07;;;-4.00;99.90;;;;;;5074790;28;20559;-78
2022/01/06 12:56:31;;;;;;;19.90;10.37;;;-4.50;99.90;;;;;;5072900;28;20480;-74
2022/01/06 12:58:59;;;;;;;33.20;12.10;;;-4.20;99.90;;;;;;5077290;28;20435;-77
2022/01/06 13:01:26;;;;;;;26.73;12.47;;;-4.50;99.90;;;;;;5067864;28;20499;-77
2022/01/06 13:03:54;;;;;;;29.73;12.20;;;-4.20;99.90;;;;;;5059986;28;20419;-77
2022/01/06 13:06:22;;;;;;;23.77;10.43;;;-3.90;99.90;;;;;;5077460;28;20228;-77
2022/01/06 13:08:57;;;;;;;29.37;11.13;;;-4.70;99.90;;;;;;5077190;28;20171;-78
2022/01/06 13:11:25;;;;;;;27.17;10.70;;;-3.10;99.90;;;;;;5076298;28;20462;-75
2022/01/06 13:13:55;;;;;;;22.47;9.73;;;-4.90;99.90;;;;;;5078193;28;20172;-75
2022/01/06 13:16:20;;;;;;;20.90;9.93;;;-4.80;99.90;;;;;;5077507;28;20188;-74
2022/01/06 13:19:13;;;;;;;23.30;8.37;;;-4.90;99.90;;;;;;5076573;28;20722;-76
2022/01/06 13:21:48;;;;;;;23.33;9.73;;;-4.80;99.90;;;;;;5076654;28;20283;-70
2022/01/06 13:24:27;;;;;;;20.47;8.40;;;-4.80;99.90;;;;;;5078448;28;20175;-81
2022/01/06 13:26:56;;;;;;;17.00;8.00;;;-4.30;99.90;;;;;;5076160;28;20560;-77
2022/01/06 13:29:40;;;;;;;20.87;8.10;;;-4.80;99.90;;;;;;5078067;28;20163;-72
2022/01/06 13:32:17;;;;;;;24.93;10.17;;;-4.90;99.90;;;;;;5062821;28;20415;-79
2022/01/06 13:34:45;;;;;;;18.67;8.57;;;-5.00;99.90;;;;;;5056567;28;20477;-69
2022/01/06 13:37:17;;;;;;;17.27;9.10;;;-4.60;99.90;;;;;;5056895;28;20851;-78
2022/01/06 13:39:46;;;;;;;22.83;11.03;;;-4.80;99.90;;;;;;5058667;28;20238;-77
2022/01/06 13:42:34;;;;;;;13.43;6.27;;;-4.50;99.90;;;;;;5077403;28;20509;-72
2022/01/06 13:52:59;;;;;;;19.63;7.60;;;-4.50;99.90;;;;;;5077365;28;20167;-73
2022/01/06 13:55:25;;;;;;;17.90;7.70;;;-4.50;99.90;;;;;;5076596;28;20181;-76
2022/01/06 13:57:51;;;;;;;14.90;6.43;;;-4.40;99.90;;;;;;5075344;28;20653;-73
2022/01/06 14:00:18;;;;;;;21.07;8.17;;;-4.20;99.90;;;;;;5076871;28;20440;-70
2022/01/06 14:02:45;;;;;;;13.17;5.40;;;-4.50;99.90;;;;;;5057341;28;20230;-73
2022/01/06 14:05:12;;;;;;;12.40;5.30;;;-4.50;99.90;;;;;;5056747;28;20172;-69
2022/01/06 14:07:39;;;;;;;13.43;5.27;;;-4.50;99.90;;;;;;5057048;28;20568;-78
2022/01/06 14:10:08;;;;;;;13.17;5.60;;;-4.10;99.90;;;;;;5072644;28;20859;-70
2022/01/06 14:12:35;;;;;;;14.90;5.00;;;-4.40;99.90;;;;;;5077110;28;20255;-70
2022/01/06 14:15:01;;;;;;;26.07;6.13;;;-4.10;99.90;;;;;;5077303;28;20498;-73
2022/01/06 14:17:27;;;;;;;13.23;4.80;;;-4.20;99.90;;;;;;5074176;28;20176;-74
2022/01/06 14:19:52;;;;;;;17.73;6.53;;;-4.10;99.90;;;;;;5076572;28;20198;-74
2022/01/06 14:22:18;;;;;;;11.47;4.97;;;-4.20;99.90;;;;;;5077170;28;20170;-71
2022/01/06 14:24:46;;;;;;;15.50;5.23;;;-3.80;99.90;;;;;;5076795;28;20166;-77
2022/01/06 14:27:13;;;;;;;15.00;4.77;;;-3.30;99.90;;;;;;5076959;28;20404;-79
2022/01/06 14:29:40;;;;;;;12.40;4.07;;;-3.90;99.90;;;;;;5076660;28;20162;-72
2022/01/06 14:32:06;;;;;;;9.40;4.00;;;-3.90;99.90;;;;;;5060591;28;20231;-71
2022/01/06 14:34:32;;;;;;;11.80;4.87;;;-3.50;99.90;;;;;;5056350;28;20417;-71
2022/01/06 14:36:58;;;;;;;15.70;4.47;;;-3.40;99.90;;;;;;5056039;28;20195;-78
2022/01/06 14:39:24;;;;;;;11.17;4.00;;;-3.80;99.90;;;;;;5056469;28;20419;-81
2022/01/06 14:41:50;;;;;;;14.53;4.27;;;-3.60;99.90;;;;;;5056543;28;20546;-79
2022/01/06 14:44:18;;;;;;;11.23;3.37;;;-3.80;99.90;;;;;;5056956;28;20488;-77
2022/01/06 14:46:45;;;;;;;9.63;3.00;;;-3.70;99.90;;;;;;5054532;28;20168;-73
2022/01/06 14:49:13;;;;;;;16.00;3.60;;;-3.70;99.90;;;;;;5056524;28;20160;-72
2022/01/06 14:51:38;;;;;;;8.47;3.33;;;-3.90;99.90;;;;;;5056595;28;20563;-70
2022/01/06 14:54:05;;;;;;;10.30;3.40;;;-4.20;99.90;;;;;;5056542;28;20484;-70
2022/01/06 14:56:31;;;;;;;7.93;3.40;;;-3.00;99.90;;;;;;5056038;28;20247;-71
2022/01/06 14:58:59;;;;;;;9.23;3.37;;;-4.80;99.90;;;;;;5055384;28;20512;-72
2022/01/06 15:01:25;;;;;;;13.17;4.13;;;-4.50;99.90;;;;;;5055711;28;20673;-77
2022/01/06 15:03:53;;;;;;;13.57;3.67;;;-4.50;99.90;;;;;;5056288;28;20401;-73
2022/01/06 15:06:19;;;;;;;9.27;3.17;;;-4.80;99.90;;;;;;5055670;28;20162;-79
2022/01/06 15:08:46;;;;;;;12.47;3.57;;;-4.60;99.90;;;;;;5055796;28;20483;-70
2022/01/06 15:11:13;;;;;;;10.87;3.33;;;-4.10;99.90;;;;;;5055972;28;20353;-71
2022/01/06 15:13:39;;;;;;;10.23;4.17;;;-4.20;99.90;;;;;;5054879;28;20512;-74
2022/01/06 15:16:07;;;;;;;10.47;4.63;;;-4.50;99.90;;;;;;5055380;28;20168;-78
2022/01/06 15:18:33;;;;;;;10.20;3.57;;;-4.40;99.90;;;;;;5055387;28;20175;-69
2022/01/06 15:21:01;;;;;;;16.87;4.80;;;-4.30;99.90;;;;;;5055301;28;20192;-80
2022/01/06 15:23:27;;;;;;;12.40;4.53;;;-4.70;99.90;;;;;;5071201;28;20256;-72
2022/01/06 15:25:53;;;;;;;13.63;5.07;;;-4.70;99.90;;;;;;5074648;28;20730;-79
2022/01/06 15:28:19;;;;;;;14.53;5.87;;;-4.70;99.90;;;;;;5075436;28;20167;-74
2022/01/06 15:30:45;;;;;;;17.67;6.10;;;-4.80;99.90;;;;;;5071277;28;20405;-74
2022/01/06 15:33:11;;;;;;;8.87;4.63;;;-4.40;99.90;;;;;;5055586;28;20217;-73
2022/01/06 15:35:38;;;;;;;8.97;3.47;;;-5.00;99.90;;;;;;5055832;28;20186;-70
2022/01/06 15:38:05;;;;;;;12.33;5.07;;;-5.00;99.90;;;;;;5055752;28;20170;-73
2022/01/06 15:40:31;;;;;;;13.60;5.13;;;-4.80;99.90;;;;;;5055306;28;20608;-71
2022/01/06 15:42:59;;;;;;;12.80;3.90;;;-4.60;99.90;;;;;;5055458;28;20915;-71
2022/01/06 15:45:24;;;;;;;14.53;4.07;;;-4.60;99.90;;;;;;5055666;28;20199;-69
2022/01/06 15:47:51;;;;;;;13.23;4.63;;;-4.50;99.90;;;;;;5055052;28;20435;-70
2022/01/06 15:50:17;;;;;;;15.80;4.00;;;-4.40;99.90;;;;;;5054615;28;20175;-73
2022/01/06 15:52:43;;;;;;;9.77;3.17;;;-4.30;99.90;;;;;;5054306;28;20714;-76
2022/01/06 15:55:09;;;;;;;14.93;4.97;;;-4.70;99.90;;;;;;5055451;28;20172;-79
2022/01/06 15:57:35;;;;;;;14.27;3.37;;;-4.90;99.90;;;;;;5055754;28;20412;-72
2022/01/06 16:00:15;;;;;;;8.77;3.43;;;-5.60;99.90;;;;;;5054680;28;20450;-72
2022/01/06 16:05:26;;;;;;;12.33;3.47;;;-5.90;99.90;;;;;;5055556;28;20529;-74
2022/01/06 16:07:52;;;;;;;9.13;3.70;;;-5.80;99.90;;;;;;5069014;28;20504;-81
2022/01/06 16:10:18;;;;;;;15.57;5.53;;;-5.70;99.90;;;;;;5075372;28;20193;-72
2022/01/06 16:12:44;;;;;;;16.90;5.60;;;-6.20;99.90;;;;;;5073835;28;20421;-76
2022/01/06 16:15:10;;;;;;;13.73;5.60;;;-6.40;99.90;;;;;;5074568;28;20171;-68
2022/01/06 16:17:37;;;;;;;12.30;4.40;;;-6.40;99.90;;;;;;5075421;28;20164;-75
2022/01/06 16:20:05;;;;;;;11.03;4.30;;;-6.10;99.90;;;;;;5075394;28;20457;-73
2022/01/06 16:22:30;;;;;;;10.97;5.53;;;-6.10;99.90;;;;;;5074369;28;20483;-80
2022/01/06 16:24:56;;;;;;;10.17;5.37;;;-5.90;99.90;;;;;;5075043;28;20431;-76
2022/01/06 16:27:22;;;;;;;19.63;7.97;;;-6.10;99.90;;;;;;5074381;28;20168;-76
2022/01/06 16:29:48;;;;;;;13.33;5.47;;;-6.20;99.90;;;;;;5075094;28;20202;-77
2022/01/06 16:32:25;;;;;;;15.00;5.67;;;-5.40;99.90;;;;;;5076855;28;20165;-77
2022/01/06 16:34:51;;;;;;;16.57;5.37;;;-6.10;99.90;;;;;;5078234;28;20171;-78
2022/01/06 16:37:19;;;;;;;12.20;5.77;;;-5.80;99.90;;;;;;5079286;28;20812;-76
2022/01/06 16:39:49;;;;;;;17.67;6.83;;;-5.90;99.90;;;;;;5078956;28;20412;-75
2022/01/06 16:42:16;;;;;;;11.30;6.00;;;-4.70;99.90;;;;;;5079074;28;20397;-77
2022/01/06 16:44:42;;;;;;;13.90;6.07;;;-6.30;99.90;;;;;;5077987;28;20875;-72
2022/01/06 16:47:08;;;;;;;12.97;6.30;;;-6.10;99.90;;;;;;5079020;28;20434;-74
2022/01/06 16:49:34;;;;;;;14.47;6.23;;;-6.50;99.90;;;;;;5078054;28;20568;-76
2022/01/06 16:52:01;;;;;;;16.00;7.73;;;-6.40;99.90;;;;;;5078565;28;20951;-75
2022/01/06 16:54:27;;;;;;;13.27;6.37;;;-6.30;99.90;;;;;;5076979;28;20412;-79
2022/01/06 16:56:52;;;;;;;18.17;7.07;;;-5.80;99.90;;;;;;5078529;28;20470;-74
2022/01/06 16:59:19;;;;;;;20.50;7.00;;;-5.80;99.90;;;;;;5077444;28;20424;-79
2022/01/06 17:01:44;;;;;;;16.90;8.33;;;-5.90;99.90;;;;;;5078775;28;20193;-79
2022/01/06 17:04:10;;;;;;;13.00;7.37;;;-5.80;99.90;;;;;;5078753;28;20469;-75
2022/01/06 17:06:37;;;;;;;18.13;7.33;;;-5.60;99.90;;;;;;5078841;28;20164;-74
2022/01/06 17:09:03;;;;;;;20.97;7.70;;;-5.90;99.90;;;;;;5078632;28;20238;-77
2022/01/06 17:11:29;;;;;;;13.63;7.03;;;-5.80;99.90;;;;;;5078596;28;20452;-78
2022/01/06 17:13:55;;;;;;;20.10;8.57;;;-6.00;99.90;;;;;;5078323;28;20490;-77
2022/01/06 17:16:22;;;;;;;26.57;8.47;;;-5.80;99.90;;;;;;5077531;28;20617;-77
2022/01/06 17:18:48;;;;;;;15.10;8.13;;;-6.20;99.90;;;;;;5078500;28;20192;-77
2022/01/06 17:21:14;;;;;;;14.57;8.80;;;-5.80;99.90;;;;;;5078425;28;20444;-80
2022/01/06 17:23:41;;;;;;;32.30;10.43;;;-5.90;99.90;;;;;;5078332;28;20862;-80
2022/01/06 17:26:11;;;;;;;18.73;9.83;;;-5.70;99.90;;;;;;5077317;28;20244;-75
2022/01/06 17:28:38;;;;;;;23.63;10.70;;;-5.80;99.90;;;;;;5078057;28;20401;-76
2022/01/06 17:31:05;;;;;;;15.03;8.17;;;-5.50;99.90;;;;;;5077385;28;20400;-79
2022/01/06 17:33:32;;;;;;;19.33;8.43;;;-5.60;99.90;;;;;;5078202;28;20440;-75
2022/01/06 17:35:59;;;;;;;18.77;8.40;;;-5.80;99.90;;;;;;5077209;28;20492;-76
2022/01/06 17:38:25;;;;;;;21.90;9.53;;;-5.90;99.90;;;;;;5078110;28;20831;-77
2022/01/06 17:40:51;;;;;;;15.03;9.03;;;-6.10;99.90;;;;;;5077616;28;20459;-76
2022/01/06 17:43:16;;;;;;;16.20;8.03;;;-4.80;99.90;;;;;;5077514;28;20453;-76
2022/01/06 17:45:45;;;;;;;17.97;10.30;;;-5.80;99.90;;;;;;5076488;28;20168;-76
2022/01/06 17:48:11;;;;;;;17.53;8.40;;;-4.10;99.90;;;;;;5078146;28;20621;-75
2022/01/06 17:50:37;;;;;;;18.37;8.90;;;-4.00;99.90;;;;;;5077904;28;20398;-78
2022/01/06 17:53:03;;;;;;;15.23;8.53;;;-5.60;99.90;;;;;;5078010;28;20164;-74
2022/01/06 17:55:29;;;;;;;19.70;9.30;;;-5.30;99.90;;;;;;5077542;28;20584;-76
2022/01/06 17:57:54;;;;;;;20.27;9.07;;;-5.50;99.90;;;;;;5076995;28;20286;-82
2022/01/06 18:00:20;;;;;;;19.30;10.57;;;-5.20;99.90;;;;;;5075570;28;20199;-75
2022/01/06 18:02:46;;;;;;;19.83;9.40;;;-4.50;99.90;;;;;;5077767;28;20164;-76
2022/01/06 18:05:16;;;;;;;18.97;9.53;;;-5.80;99.90;;;;;;5077190;28;20704;-81
2022/01/06 18:13:11;;;;;;;16.37;7.70;;;-5.30;99.90;;;;;;5071374;28;20468;-80
2022/01/06 18:15:38;;;;;;;17.53;9.40;;;-5.30;99.90;;;;;;5069714;28;20760;-78
2022/01/06 18:18:04;;;;;;;18.13;8.77;;;-5.50;99.90;;;;;;5073171;28;20835;-79
2022/01/06 18:20:30;;;;;;;11.80;8.30;;;-5.30;99.90;;;;;;5074069;28;20450;-79
2022/01/06 18:22:56;;;;;;;16.80;10.10;;;-5.30;99.90;;;;;;5067416;28;20711;-78
2022/01/06 18:25:22;;;;;;;21.63;8.77;;;-5.30;99.90;;;;;;5060715;28;20587;-82
2022/01/06 18:27:48;;;;;;;14.43;8.60;;;-5.30;99.90;;;;;;5058789;28;20238;-76
2022/01/06 18:30:16;;;;;;;17.27;8.80;;;-5.40;99.90;;;;;;5065633;28;20211;-79
2022/01/06 18:32:43;;;;;;;15.43;8.00;;;-5.50;99.90;;;;;;5067501;28;20415;-75
2022/01/06 18:35:11;;;;;;;18.20;7.23;;;-4.10;99.90;;;;;;5064531;28;20415;-78
2022/01/06 18:37:40;;;;;;;16.17;8.67;;;-5.40;99.90;;;;;;5068029;28;20770;-76
2022/01/06 18:40:07;;;;;;;18.27;9.07;;;-5.20;99.90;;;;;;5066470;28;20492;-74
2022/01/06 18:42:33;;;;;;;18.73;8.53;;;-4.80;99.90;;;;;;5046620;28;20433;-72
2022/01/06 18:44:59;;;;;;;19.87;10.03;;;-4.30;99.90;;;;;;5066015;28;20912;-73
2022/01/06 18:47:30;;;;;;;18.60;8.20;;;-4.80;99.90;;;;;;5061186;28;20262;-74
2022/01/06 18:49:57;;;;;;;15.00;11.37;;;-4.70;99.90;;;;;;5061584;28;20172;-72
2022/01/06 18:52:24;;;;;;;12.87;6.30;;;-4.30;99.90;;;;;;5060047;28;20402;-70
2022/01/06 18:54:50;;;;;;;15.20;7.47;;;-3.70;99.90;;;;;;5061376;28;20519;-74
2022/01/06 18:57:15;;;;;;;16.03;7.20;;;-5.10;99.90;;;;;;5064563;28;20832;-76
2022/01/06 18:59:42;;;;;;;13.07;6.67;;;-2.80;99.90;;;;;;5062996;28;20609;-78
2022/01/06 19:02:08;;;;;;;13.27;6.87;;;-5.80;99.90;;;;;;5067849;28;20226;-74
2022/01/06 19:04:34;;;;;;;14.43;7.20;;;-5.90;99.90;;;;;;5068491;28;20440;-72
2022/01/06 19:06:59;;;;;;;19.47;7.23;;;-5.30;99.90;;;;;;5073644;28;20547;-72
2022/01/06 19:09:25;;;;;;;11.80;6.23;;;-5.00;99.90;;;;;;5069578;28;20470;-72
2022/01/06 19:11:52;;;;;;;7.10;5.60;;;-4.90;99.90;;;;;;5064878;28;20328;-77
2022/01/06 19:14:18;;;;;;;15.23;6.93;;;-5.20;99.90;;;;;;5058977;28;20171;-73
2022/01/06 19:16:45;;;;;;;11.33;6.47;;;-3.70;99.90;;;;;;5058382;28;20433;-73
2022/01/06 19:19:11;;;;;;;17.30;7.20;;;-5.80;99.90;;;;;;5074359;28;20456;-74
2022/01/06 19:21:37;;;;;;;12.50;5.80;;;-6.10;99.90;;;;;;5080157;28;20959;-75
2022/01/06 19:24:03;;;;;;;12.20;5.97;;;-4.50;99.90;;;;;;5076713;28;20389;-75
2022/01/06 19:26:29;;;;;;;10.47;6.37;;;-5.80;99.90;;;;;;5088938;28;20488;-75
2022/01/06 19:28:55;;;;;;;13.63;4.83;;;-2.50;99.90;;;;;;5076053;28;20536;-73
2022/01/06 19:31:21;;;;;;;17.90;5.43;;;-4.40;99.90;;;;;;5075837;28;20599;-75
2022/01/06 19:33:47;;;;;;;10.77;5.53;;;-3.40;99.90;;;;;;5076062;28;20579;-76
2022/01/06 19:36:13;;;;;;;13.17;6.90;;;-5.20;99.90;;;;;;5076535;28;20485;-73
2022/01/06 19:38:39;;;;;;;16.90;6.00;;;-4.70;99.90;;;;;;5095988;28;20678;-74
2022/01/06 19:41:05;;;;;;;7.73;5.43;;;-5.00;99.90;;;;;;5096028;28;20252;-77
2022/01/06 19:43:32;;;;;;;9.90;4.97;;;-5.20;99.90;;;;;;5095667;28;20400;-74
2022/01/06 19:45:58;;;;;;;15.80;5.83;;;-5.10;99.90;;;;;;5094614;28;20483;-79
2022/01/06 19:48:24;;;;;;;14.03;5.20;;;-5.60;99.90;;;;;;5096237;28;20392;-73
2022/01/06 19:50:50;;;;;;;11.07;5.47;;;-5.40;99.90;;;;;;5096025;28;20413;-77
2022/01/06 19:53:17;;;;;;;9.90;5.50;;;-5.40;99.90;;;;;;5095601;28;20194;-76
2022/01/06 19:55:44;;;;;;;15.33;6.30;;;-5.30;99.90;;;;;;5095196;28;20411;-78
2022/01/06 19:58:10;;;;;;;13.90;5.87;;;-5.70;99.90;;;;;;5095480;28;20440;-71
2022/01/06 20:00:37;;;;;;;19.10;5.87;;;-5.60;99.90;;;;;;5094680;28;20447;-74
2022/01/06 20:03:05;;;;;;;10.47;4.70;;;-5.00;99.90;;;;;;5089433;28;20410;-74
2022/01/06 20:05:31;;;;;;;12.13;6.50;;;-5.50;99.90;;;;;;5075607;28;20878;-81
2022/01/06 20:07:56;;;;;;;13.33;7.10;;;-5.20;99.90;;;;;;5075167;28;20397;-82
2022/01/06 20:10:22;;;;;;;15.53;6.87;;;-4.80;99.90;;;;;;5073689;28;20511;-82
2022/01/06 20:12:49;;;;;;;16.13;5.73;;;-5.00;99.90;;;;;;5072402;28;20172;-81
2022/01/06 20:15:14;;;;;;;8.53;5.37;;;-5.00;99.90;;;;;;5073834;28;20297;-80
2022/01/06 20:17:41;;;;;;;7.93;5.27;;;-5.40;99.90;;;;;;5074861;28;20477;-79
2022/01/06 20:20:29;;;;;;;12.50;5.83;;;-5.40;99.90;;;;;;5074227;28;20464;-83
2022/01/06 20:22:56;;;;;;;14.60;7.17;;;-4.80;99.90;;;;;;5075718;28;20403;-78
2022/01/06 20:25:23;;;;;;;9.00;6.43;;;-4.90;99.90;;;;;;5065026;28;20872;-81
2022/01/06 20:27:54;;;;;;;9.73;5.17;;;-4.00;99.90;;;;;;5073928;28;20508;-73
2022/01/06 20:30:20;;;;;;;7.70;5.43;;;-5.00;99.90;;;;;;5074073;28;20457;-82
2022/01/06 20:32:46;;;;;;;6.00;4.50;;;-4.50;99.90;;;;;;5076711;28;20421;-79
2022/01/06 20:35:12;;;;;;;9.83;5.23;;;-4.40;99.90;;;;;;5078386;28;20419;-75
2022/01/06 20:37:39;;;;;;;8.30;4.87;;;-4.90;99.90;;;;;;5079474;28;20180;-73
2022/01/06 20:40:07;;;;;;;12.30;6.03;;;-4.70;99.90;;;;;;5068980;28;20189;-78
2022/01/06 20:42:33;;;;;;;8.07;4.70;;;-4.90;99.90;;;;;;5073085;28;20492;-77
2022/01/06 20:45:00;;;;;;;9.73;5.10;;;-5.00;99.90;;;;;;5073112;28;20442;-73
2022/01/06 20:52:55;;;;;;;13.80;5.97;;;-5.20;99.90;;;;;;5091001;28;20765;-78
2022/01/06 20:55:20;;;;;;;16.20;5.50;;;-4.90;99.90;;;;;;5094339;28;20761;-79
2022/01/06 20:57:48;;;;;;;9.50;5.07;;;-4.70;99.90;;;;;;5093516;28;20404;-80
2022/01/06 21:00:15;;;;;;;18.50;6.00;;;-4.50;99.90;;;;;;5094226;28;20197;-75
2022/01/06 21:02:41;;;;;;;8.03;4.53;;;-5.60;99.90;;;;;;5095303;28;20410;-78
2022/01/06 21:05:07;;;;;;;8.90;4.90;;;-5.80;99.90;;;;;;5078970;28;20405;-72
2022/01/06 21:07:33;;;;;;;9.30;5.00;;;-5.50;99.90;;;;;;5074434;28;20172;-79
2022/01/06 21:09:59;;;;;;;12.37;6.33;;;-5.60;99.90;;;;;;5090500;28;20440;-79
2022/01/06 21:12:27;;;;;;;16.60;5.47;;;-5.80;99.90;;;;;;5095358;28;20401;-83